Terminal Aerodrome Forecast
Issued by NWS

Home | Current Version | Previous Version | Text Only | Print | Product List | Glossary On
Versions: 1 2 3 4 5 6 7 8 9 10 11 12 13 14
000
FTUS42 KGSP 050535
TAFGMU
TAF
KGMU 050535Z 0506/0606 05008KT P6SM SCT040 BKN100
      TEMPO 0506/0510 5SM BR
     FM051000 05010KT P6SM OVC015
     FM051500 05010KT P6SM BKN025
     FM051700 05009KT P6SM BKN045 PROB30 0517/0523 4SM TSRA BKN040CB
     FM052300 05008KT P6SM BKN045 PROB30 0523/0602 4SM TSRA BKN040CB
     FM060200 04011KT P6SM BKN045=

USA.gov is the U.S. government's official web portal to all federal, state and local government web resources and services.